createdAt,value
2023-01-04T00:01:03.484Z,6.22
2023-01-04T00:03:09.182Z,6.70
2023-01-04T00:05:14.964Z,6.47
2023-01-04T00:07:20.415Z,5.85
2023-01-04T00:09:25.928Z,6.10
2023-01-04T00:11:31.701Z,5.43
2023-01-04T00:13:38.076Z,5.80
2023-01-04T00:15:46.371Z,5.72
2023-01-04T00:17:51.898Z,6.25
2023-01-04T00:19:57.429Z,6.07
2023-01-04T00:22:02.946Z,6.22
2023-01-04T00:24:09.632Z,5.40
2023-01-04T00:26:19.221Z,5.63
2023-01-04T00:28:24.552Z,5.55
2023-01-04T00:30:29.916Z,5.72
2023-01-04T00:32:38.952Z,5.50
2023-01-04T00:34:44.451Z,5.72
2023-01-04T00:36:50.015Z,5.88
2023-01-04T00:39:09.719Z,5.45
2023-01-04T00:41:49.078Z,6.10
2023-01-04T00:43:43.590Z,6.05
2023-01-04T00:45:48.856Z,5.65
2023-01-04T00:47:56.791Z,6.63
2023-01-04T00:50:02.531Z,6.15
2023-01-04T00:52:08.349Z,6.47
2023-01-04T00:54:18.057Z,6.13
2023-01-04T00:56:23.455Z,6.40
2023-01-04T00:58:28.712Z,6.18
2023-01-04T01:00:34.294Z,5.88
2023-01-04T01:02:39.767Z,5.90
2023-01-04T01:04:48.010Z,6.53
2023-01-04T01:06:54.231Z,5.80
2023-01-04T01:09:00.549Z,5.97
2023-01-04T01:11:09.440Z,6.75
2023-01-04T01:13:14.800Z,5.82
2023-01-04T01:15:21.090Z,5.60
2023-01-04T01:17:26.499Z,5.18
2023-01-04T01:19:32.769Z,6.28
2023-01-04T01:21:41.712Z,5.53
2023-01-04T01:23:47.465Z,5.88
2023-01-04T01:25:53.109Z,5.30
2023-01-04T01:27:58.389Z,5.53
2023-01-04T01:30:03.746Z,5.05
2023-01-04T01:32:09.481Z,5.32
2023-01-04T01:34:14.907Z,5.38
2023-01-04T01:36:23.560Z,5.15
2023-01-04T01:38:31.717Z,4.35
2023-01-04T01:40:37.081Z,4.93
2023-01-04T01:42:42.543Z,5.20
2023-01-04T01:45:11.374Z,5.03
2023-01-04T01:47:21.838Z,4.80
2023-01-04T01:49:33.869Z,5.25
2023-01-04T01:51:40.985Z,5.43
2023-01-04T01:53:58.697Z,4.38
2023-01-04T01:56:06.861Z,4.85
2023-01-04T01:58:19.947Z,4.95
2023-01-04T02:00:25.894Z,4.57
2023-01-04T02:02:31.583Z,5.05
2023-01-04T02:04:41.398Z,4.53
2023-01-04T02:06:52.295Z,5.13
2023-01-04T02:09:01.129Z,4.75
2023-01-04T02:11:07.756Z,4.57
2023-01-04T02:13:19.011Z,4.88
2023-01-04T02:15:26.919Z,5.07
2023-01-04T02:17:47.060Z,4.55
2023-01-04T02:20:34.139Z,4.60
2023-01-04T02:23:25.096Z,4.35
2023-01-04T02:26:15.355Z,4.28
2023-01-04T02:28:45.678Z,4.40
2023-01-04T02:31:30.796Z,4.53
2023-01-04T02:33:51.698Z,5.03
2023-01-04T02:36:10.634Z,4.00
2023-01-04T02:38:25.160Z,4.88
2023-01-04T02:40:42.837Z,4.40
2023-01-04T02:43:15.731Z,5.13
2023-01-04T02:45:29.974Z,5.30
2023-01-04T02:47:53.562Z,5.57
2023-01-04T02:50:11.291Z,5.50
2023-01-04T02:52:17.133Z,5.50
2023-01-04T02:54:30.048Z,5.25
2023-01-04T02:57:05.610Z,5.50
2023-01-04T02:59:36.324Z,5.10
2023-01-04T03:02:07.516Z,5.20
2023-01-04T03:04:49.139Z,4.57
2023-01-04T03:07:05.981Z,4.55
2023-01-04T03:09:21.833Z,5.03
2023-01-04T03:11:49.444Z,4.63
2023-01-04T03:13:56.776Z,4.20
2023-01-04T03:16:10.908Z,4.07
2023-01-04T03:18:23.862Z,4.20
2023-01-04T03:20:34.618Z,4.40
2023-01-04T03:22:57.058Z,4.85
2023-01-04T03:25:17.541Z,4.90
2023-01-04T03:27:37.456Z,4.78
2023-01-04T03:30:01.340Z,4.90
2023-01-04T03:32:26.985Z,4.85
2023-01-04T03:34:45.099Z,5.57
2023-01-04T03:37:07.668Z,6.30
2023-01-04T03:39:36.731Z,5.88
2023-01-04T03:42:03.935Z,6.55
2023-01-04T03:44:35.563Z,7.47
2023-01-04T03:47:02.487Z,6.22
2023-01-04T03:49:20.493Z,6.53
2023-01-04T03:51:31.504Z,7.00
2023-01-04T03:53:48.714Z,7.00
2023-01-04T03:55:57.902Z,6.47
2023-01-04T03:58:03.462Z,6.20
2023-01-04T04:00:16.501Z,6.82
2023-01-04T04:02:27.373Z,7.57
2023-01-04T04:04:45.297Z,6.78
2023-01-04T04:07:03.193Z,6.15
2023-01-04T04:09:11.052Z,4.97
2023-01-04T04:11:28.773Z,6.40
2023-01-04T04:13:34.101Z,5.97
2023-01-04T04:15:40.032Z,6.32
2023-01-04T04:17:45.481Z,6.07
2023-01-04T04:19:50.893Z,5.55
2023-01-04T04:21:56.259Z,6.18
2023-01-04T04:24:01.710Z,6.13
2023-01-04T04:26:09.956Z,4.93
2023-01-04T04:28:15.254Z,5.50
2023-01-04T04:30:20.901Z,5.20
2023-01-04T04:32:26.289Z,4.78
2023-01-04T04:34:31.604Z,5.30
2023-01-04T04:36:36.876Z,5.43
2023-01-04T04:38:42.292Z,5.93
2023-01-04T04:41:00.147Z,5.07
2023-01-04T04:43:12.199Z,4.88
2023-01-04T04:45:17.784Z,4.75
2023-01-04T04:47:23.237Z,6.28
2023-01-04T04:49:28.594Z,6.60
2023-01-04T04:51:34.282Z,6.80
2023-01-04T04:53:39.759Z,6.15
2023-01-04T04:55:45.250Z,6.15
2023-01-04T04:57:50.513Z,7.63
2023-01-04T04:59:58.441Z,6.10
2023-01-04T05:02:03.839Z,7.38
2023-01-04T05:04:09.618Z,8.63
2023-01-04T05:06:14.937Z,7.60
2023-01-04T05:08:20.560Z,8.82
2023-01-04T05:10:25.859Z,9.00
2023-01-04T05:12:43.642Z,7.80
2023-01-04T05:14:48.875Z,9.00
2023-01-04T05:16:57.014Z,7.22
2023-01-04T05:19:02.445Z,6.63
2023-01-04T05:21:08.537Z,7.95
2023-01-04T05:23:16.651Z,7.20
2023-01-04T05:25:22.314Z,5.68
2023-01-04T05:27:27.895Z,6.40
2023-01-04T05:29:45.869Z,6.78
2023-01-04T05:31:51.238Z,6.28
2023-01-04T05:33:59.382Z,6.45
2023-01-04T05:36:07.782Z,5.57
2023-01-04T05:38:13.200Z,6.07
2023-01-04T05:40:18.716Z,7.13
2023-01-04T05:42:29.833Z,6.53
2023-01-04T05:44:35.226Z,7.10
2023-01-04T05:46:40.541Z,6.82
2023-01-04T05:48:45.841Z,5.82
2023-01-04T05:50:53.924Z,7.15
2023-01-04T05:52:59.232Z,6.38
2023-01-04T05:55:05.124Z,7.13
2023-01-04T05:57:10.691Z,5.75
2023-01-04T05:59:16.268Z,5.38
2023-01-04T06:01:21.743Z,5.65
2023-01-04T06:03:27.195Z,6.13
2023-01-04T06:05:32.639Z,4.38
2023-01-04T06:07:41.541Z,5.60
2023-01-04T06:09:47.297Z,5.38
2023-01-04T06:11:52.616Z,6.20
2023-01-04T06:13:58.190Z,6.28
2023-01-04T06:16:04.009Z,7.07
2023-01-04T06:18:13.345Z,6.22
2023-01-04T06:20:19.599Z,6.57
2023-01-04T06:22:27.117Z,6.35
2023-01-04T06:24:35.701Z,8.18
2023-01-04T06:26:41.041Z,7.72
2023-01-04T06:28:46.530Z,8.75
2023-01-04T06:30:51.910Z,7.78
2023-01-04T06:32:57.555Z,7.53
2023-01-04T06:35:02.955Z,7.07
2023-01-04T06:37:09.919Z,6.70
2023-01-04T06:39:15.345Z,6.55
2023-01-04T06:41:23.319Z,5.40
2023-01-04T06:43:28.827Z,4.10
2023-01-04T06:45:34.220Z,5.90
2023-01-04T06:47:39.990Z,5.10
2023-01-04T06:49:45.425Z,5.45
2023-01-04T06:51:51.040Z,4.80
2023-01-04T06:53:56.397Z,5.22
2023-01-04T06:56:02.101Z,5.28
2023-01-04T06:58:10.144Z,5.07
2023-01-04T07:00:17.871Z,5.03
2023-01-04T07:02:23.668Z,5.47
2023-01-04T07:04:29.379Z,5.60
2023-01-04T07:06:37.849Z,4.18
2023-01-04T07:08:43.721Z,4.95
2023-01-04T07:10:49.873Z,4.65
2023-01-04T07:12:58.396Z,4.20
2023-01-04T07:15:37.245Z,5.22
2023-01-04T07:17:32.713Z,4.30
2023-01-04T07:19:38.189Z,4.30
2023-01-04T07:21:43.833Z,4.65
2023-01-04T07:23:49.692Z,4.18
2023-01-04T07:25:55.152Z,4.38
2023-01-04T07:28:01.102Z,3.95
2023-01-04T07:30:11.164Z,4.07
2023-01-04T07:32:18.546Z,4.05
2023-01-04T07:34:28.512Z,3.78
2023-01-04T07:36:33.946Z,3.83
2023-01-04T07:38:39.766Z,3.75
2023-01-04T07:40:55.859Z,4.10
2023-01-04T07:43:02.727Z,3.90
2023-01-04T07:45:12.018Z,3.90
2023-01-04T07:47:17.283Z,3.28
2023-01-04T07:49:23.017Z,3.72
2023-01-04T07:51:28.463Z,3.08
2023-01-04T07:53:36.266Z,3.13
2023-01-04T07:55:41.567Z,2.95
2023-01-04T07:57:46.922Z,3.22
2023-01-04T07:59:52.149Z,2.88
2023-01-04T08:02:00.267Z,2.83
2023-01-04T08:04:06.056Z,2.22
2023-01-04T08:06:15.043Z,2.63
2023-01-04T08:08:20.326Z,2.88
2023-01-04T08:10:25.651Z,2.13
2023-01-04T08:12:31.167Z,1.65
2023-01-04T08:14:36.680Z,2.65
2023-01-04T08:16:45.399Z,2.50
2023-01-04T08:18:57.299Z,2.30
2023-01-04T08:21:07.842Z,2.38
2023-01-04T08:23:13.192Z,2.40
2023-01-04T08:25:18.643Z,2.30
2023-01-04T08:27:24.023Z,2.58
2023-01-04T08:29:34.491Z,2.17
2023-01-04T08:31:41.147Z,2.58
2023-01-04T08:33:47.911Z,2.40
2023-01-04T08:35:55.800Z,2.30
2023-01-04T08:38:28.560Z,2.38
2023-01-04T08:40:26.380Z,2.10
2023-01-04T08:42:51.798Z,2.40
2023-01-04T08:44:59.630Z,2.08
2023-01-04T08:47:05.577Z,2.40
2023-01-04T08:49:11.169Z,2.25
2023-01-04T08:51:20.012Z,1.98
2023-01-04T08:53:25.359Z,1.80
2023-01-04T08:55:30.745Z,2.28
2023-01-04T08:57:37.690Z,2.92
2023-01-04T08:59:43.345Z,2.33
2023-01-04T09:01:49.288Z,2.50
2023-01-04T09:03:55.794Z,3.05
2023-01-04T09:06:07.251Z,2.00
2023-01-04T09:08:15.170Z,2.40
2023-01-04T09:10:20.839Z,2.28
2023-01-04T09:12:26.632Z,2.17
2023-01-04T09:14:31.975Z,1.88
2023-01-04T09:16:37.581Z,1.92
2023-01-04T09:18:43.162Z,1.80
2023-01-04T09:20:49.048Z,2.05
2023-01-04T09:22:54.487Z,1.67
2023-01-04T09:25:02.374Z,1.80
2023-01-04T09:27:07.750Z,1.73
2023-01-04T09:29:14.703Z,1.83
2023-01-04T09:31:24.826Z,1.60
2023-01-04T09:34:03.540Z,2.13
2023-01-04T09:35:56.164Z,1.52
2023-01-04T09:38:01.557Z,1.60
2023-01-04T09:40:21.351Z,1.80
2023-01-04T09:42:37.456Z,1.80
2023-01-04T09:47:20.689Z,2.13
2023-01-04T09:49:35.080Z,1.55
2023-01-04T09:51:46.685Z,1.67
2023-01-04T09:54:00.859Z,1.50
2023-01-04T09:56:21.687Z,1.55
2023-01-04T09:58:33.110Z,2.13
2023-01-04T10:00:48.779Z,1.73
2023-01-04T10:03:02.140Z,2.00
2023-01-04T10:07:27.779Z,3.53
2023-01-04T10:09:33.253Z,4.68
2023-01-04T10:12:02.400Z,1.88
2023-01-04T10:14:33.156Z,1.60
2023-01-04T10:17:14.931Z,2.28
2023-01-04T10:22:16.297Z,1.80
2023-01-04T10:24:50.296Z,2.20
2023-01-04T10:27:09.178Z,1.95
2023-01-04T10:29:44.129Z,1.92
2023-01-04T10:31:57.913Z,2.25
2023-01-04T10:34:25.911Z,3.00
2023-01-04T10:36:34.402Z,2.47
2023-01-04T10:38:43.208Z,2.03
2023-01-04T10:40:51.552Z,1.90
2023-01-04T10:43:09.958Z,1.90
2023-01-04T10:45:21.808Z,1.63
2023-01-04T10:47:37.469Z,1.80
2023-01-04T10:49:50.186Z,1.90
2023-01-04T10:52:05.421Z,1.40
2023-01-04T10:54:27.263Z,1.80
2023-01-04T10:56:40.796Z,1.58
2023-01-04T10:58:56.186Z,1.67
2023-01-04T11:01:10.676Z,1.75
2023-01-04T11:03:25.690Z,1.63
2023-01-04T11:05:40.698Z,2.00
2023-01-04T11:07:56.585Z,2.83
2023-01-04T11:10:10.336Z,2.20
2023-01-04T11:12:20.808Z,1.80
2023-01-04T11:14:35.116Z,1.92
2023-01-04T11:16:49.523Z,1.95
2023-01-04T11:18:55.990Z,3.92
2023-01-04T11:21:02.136Z,1.73
2023-01-04T11:23:15.712Z,2.55
2023-01-04T11:25:39.737Z,2.00
2023-01-04T11:27:51.328Z,1.60
2023-01-04T11:30:05.755Z,1.80
2023-01-04T11:32:21.151Z,2.13
2023-01-04T11:34:48.755Z,2.00
2023-01-04T11:36:54.402Z,1.80
2023-01-04T11:39:00.333Z,2.67
2023-01-04T11:41:08.661Z,1.17
2023-01-04T11:43:21.259Z,1.33
2023-01-04T11:45:31.351Z,1.30
2023-01-04T11:47:36.883Z,1.80
2023-01-04T11:49:42.164Z,2.15
2023-01-04T11:51:47.494Z,2.05
2023-01-04T11:54:02.200Z,1.90
2023-01-04T11:56:24.940Z,2.00
2023-01-04T11:58:30.767Z,2.23
2023-01-04T12:00:38.694Z,2.00
2023-01-04T12:07:49.264Z,2.03
2023-01-04T12:09:54.631Z,1.98
2023-01-04T12:12:03.354Z,4.70
2023-01-04T12:14:24.070Z,2.58
2023-01-04T12:16:50.841Z,3.75
2023-01-04T12:18:57.269Z,2.78
2023-01-04T12:21:06.040Z,1.67
2023-01-04T12:23:14.906Z,1.52
2023-01-04T12:25:37.182Z,0.90
2023-01-04T12:27:51.048Z,1.20
2023-01-04T12:30:01.918Z,1.30
2023-01-04T12:32:43.998Z,1.50
2023-01-04T12:34:51.341Z,1.35
2023-01-04T12:37:05.533Z,1.20
2023-01-04T12:39:43.790Z,1.15
2023-01-04T12:42:19.764Z,1.50
2023-01-04T12:45:19.749Z,1.73
2023-01-04T12:47:59.314Z,1.63
2023-01-04T12:50:11.002Z,2.10
2023-01-04T12:53:10.739Z,1.70
2023-01-04T12:55:59.398Z,1.40
2023-01-04T12:58:06.357Z,0.93
2023-01-04T13:00:14.692Z,1.40
2023-01-04T13:02:25.240Z,1.02
2023-01-04T13:04:43.689Z,0.93
2023-01-04T13:06:50.632Z,0.70
2023-01-04T13:08:56.563Z,0.75
2023-01-04T13:11:04.215Z,0.95
2023-01-04T13:13:35.820Z,0.98
2023-01-04T13:16:05.486Z,0.90
2023-01-04T13:18:34.494Z,0.98
2023-01-04T13:20:43.339Z,0.90
2023-01-04T13:22:55.858Z,3.97
2023-01-04T13:25:04.856Z,3.70
2023-01-04T13:27:12.063Z,1.70
2023-01-04T13:29:24.777Z,2.05
2023-01-04T13:31:30.241Z,2.20
2023-01-04T13:33:35.877Z,1.30
2023-01-04T13:35:43.925Z,0.80
2023-01-04T13:37:51.664Z,1.17
2023-01-04T13:40:19.765Z,1.00
2023-01-04T13:42:31.752Z,0.85
2023-01-04T13:45:27.318Z,0.70
2023-01-04T13:47:38.488Z,5.25
2023-01-04T13:49:44.638Z,2.00
2023-01-04T13:52:01.171Z,0.75
2023-01-04T13:54:27.734Z,0.60
2023-01-04T13:56:37.890Z,0.70
2023-01-04T13:58:46.370Z,1.00
2023-01-04T14:01:03.167Z,0.93
2023-01-04T14:03:29.383Z,1.10
2023-01-04T14:05:36.087Z,2.58
2023-01-04T14:07:48.637Z,2.55
2023-01-04T14:10:04.116Z,0.93
2023-01-04T14:12:25.026Z,0.60
2023-01-04T14:14:54.209Z,1.08
2023-01-04T14:17:48.148Z,0.65
2023-01-04T14:19:58.901Z,1.02
2023-01-04T14:22:04.526Z,1.08
2023-01-04T14:27:03.015Z,0.80
2023-01-04T14:29:33.684Z,1.30
2023-01-04T14:31:40.098Z,1.30
2023-01-04T14:33:49.070Z,1.10
2023-01-04T14:36:06.297Z,1.60
2023-01-04T14:38:19.078Z,1.55
2023-01-04T14:40:33.049Z,3.13
2023-01-04T14:42:38.429Z,1.20
2023-01-04T14:44:43.810Z,1.05
2023-01-04T14:46:53.383Z,0.70
2023-01-04T14:48:59.278Z,0.77
2023-01-04T14:51:07.249Z,0.90
2023-01-04T14:53:13.678Z,1.30
2023-01-04T14:55:19.224Z,2.95
2023-01-04T14:57:27.182Z,1.20
2023-01-04T14:59:32.496Z,1.02
2023-01-04T15:01:39.059Z,1.38
2023-01-04T15:03:44.426Z,1.77
2023-01-04T15:05:50.166Z,1.30
2023-01-04T15:07:56.234Z,1.27
2023-01-04T15:10:09.393Z,1.35
2023-01-04T15:14:22.798Z,1.10
2023-01-04T15:16:28.311Z,0.80
2023-01-04T15:18:33.907Z,0.70
2023-01-04T15:20:42.084Z,0.88
2023-01-04T15:22:47.392Z,0.68
2023-01-04T15:24:52.697Z,1.00
2023-01-04T15:26:58.046Z,1.15
2023-01-04T15:29:04.426Z,1.20
2023-01-04T15:31:15.964Z,1.48
2023-01-04T15:33:21.469Z,2.90
2023-01-04T15:35:27.505Z,0.85
2023-01-04T15:37:32.922Z,0.95
2023-01-04T15:39:38.571Z,0.90
2023-01-04T15:42:11.472Z,1.40
2023-01-04T15:44:16.927Z,1.70
2023-01-04T15:46:25.245Z,4.70
2023-01-04T15:48:30.536Z,1.60
2023-01-04T15:50:39.715Z,1.58
2023-01-04T15:52:45.119Z,1.48
2023-01-04T15:54:50.460Z,3.67
2023-01-04T15:56:55.912Z,3.30
2023-01-04T15:59:01.329Z,2.80
2023-01-04T16:01:12.873Z,1.45
2023-01-04T16:03:20.928Z,1.10
2023-01-04T16:05:37.158Z,1.20
2023-01-04T16:07:43.852Z,1.20
2023-01-04T16:09:49.341Z,1.38
2023-01-04T16:12:07.235Z,0.82
2023-01-04T16:14:13.069Z,0.80
2023-01-04T16:16:19.813Z,0.90
2023-01-04T16:18:32.360Z,0.63
2023-01-04T16:20:38.172Z,0.70
2023-01-04T16:22:54.527Z,0.47
2023-01-04T16:25:10.439Z,0.68
2023-01-04T16:27:35.136Z,0.93
2023-01-04T16:29:46.101Z,0.75
2023-01-04T16:31:57.487Z,0.52
2023-01-04T16:34:42.688Z,1.20
2023-01-04T16:36:54.746Z,2.30
2023-01-04T16:39:01.081Z,2.28
2023-01-04T16:41:08.200Z,1.60
2023-01-04T16:43:13.562Z,1.10
2023-01-04T16:51:03.388Z,0.63
2023-01-04T16:53:09.043Z,1.33
2023-01-04T16:55:17.311Z,1.00
2023-01-04T16:57:39.921Z,1.25
2023-01-04T16:59:53.041Z,1.00
2023-01-04T17:02:01.725Z,1.23
2023-01-04T17:04:10.705Z,0.98
2023-01-04T17:06:22.015Z,1.10
2023-01-04T17:08:27.459Z,0.90
2023-01-04T17:10:33.128Z,0.98
2023-01-04T17:12:47.643Z,1.00
2023-01-04T17:15:23.781Z,1.10
2023-01-04T17:17:22.476Z,1.55
2023-01-04T17:19:31.319Z,1.85
2023-01-04T17:21:39.326Z,1.80
2023-01-04T17:23:48.167Z,1.33
2023-01-04T17:25:53.509Z,1.08
2023-01-04T17:27:59.991Z,0.90
2023-01-04T17:30:15.436Z,1.48
2023-01-04T17:32:20.813Z,1.23
2023-01-04T17:34:26.646Z,1.05
2023-01-04T17:36:36.108Z,1.20
2023-01-04T17:38:45.005Z,1.25
2023-01-04T17:40:50.455Z,1.00
2023-01-04T17:42:55.936Z,1.38
2023-01-04T17:45:01.399Z,0.88
2023-01-04T17:47:07.134Z,0.90
2023-01-04T17:49:22.736Z,0.88
2023-01-04T17:52:07.117Z,0.52
2023-01-04T17:55:20.219Z,0.63
2023-01-04T17:57:44.507Z,0.60
2023-01-04T17:59:50.376Z,0.60
2023-01-04T18:01:56.678Z,1.00
2023-01-04T18:04:06.921Z,0.70
2023-01-04T18:06:25.471Z,0.60
2023-01-04T18:08:31.254Z,0.60
2023-01-04T18:10:57.211Z,0.73
2023-01-04T18:13:04.848Z,1.50
2023-01-04T18:15:12.193Z,1.20
2023-01-04T18:17:17.692Z,1.40
2023-01-04T18:19:23.112Z,1.30
2023-01-04T18:21:31.980Z,1.52
2023-01-04T18:23:47.107Z,1.20
2023-01-04T18:25:55.714Z,0.90
2023-01-04T18:28:01.166Z,0.93
2023-01-04T18:30:11.825Z,0.90
2023-01-04T18:32:17.563Z,1.08
2023-01-04T18:34:26.681Z,0.80
2023-01-04T18:36:37.688Z,1.52
2023-01-04T18:38:46.464Z,0.70
2023-01-04T18:40:51.987Z,0.70
2023-01-04T18:42:57.531Z,0.68
2023-01-04T18:45:02.891Z,0.52
2023-01-04T18:47:11.138Z,0.60
2023-01-04T18:49:17.540Z,0.90
2023-01-04T18:51:25.095Z,0.70
2023-01-04T18:53:30.513Z,0.82
2023-01-04T18:55:36.179Z,0.70
2023-01-04T18:58:09.333Z,0.85
2023-01-04T19:00:30.165Z,0.90
2023-01-04T19:02:55.135Z,0.60
2023-01-04T19:05:03.466Z,0.70
2023-01-04T19:07:10.006Z,0.75
2023-01-04T19:09:19.783Z,0.85
2023-01-04T19:11:31.312Z,0.93
2023-01-04T19:14:11.343Z,0.90
2023-01-04T19:16:24.000Z,0.70
2023-01-04T19:18:32.485Z,0.93
2023-01-04T19:20:38.041Z,0.85
2023-01-04T19:22:43.478Z,0.75
2023-01-04T19:24:48.951Z,1.38
2023-01-04T19:29:40.820Z,0.90
2023-01-04T19:31:46.150Z,0.82
2023-01-04T19:33:55.416Z,1.13
2023-01-04T19:36:00.835Z,0.70
2023-01-04T19:38:06.318Z,0.50
2023-01-04T19:40:13.486Z,0.73
2023-01-04T19:42:19.067Z,0.50
2023-01-04T19:44:27.909Z,0.65
2023-01-04T19:46:37.767Z,0.95
2023-01-04T19:49:00.388Z,1.30
2023-01-04T19:51:33.942Z,1.00
2023-01-04T19:59:28.425Z,0.63
2023-01-04T20:01:34.050Z,0.88
2023-01-04T20:03:39.666Z,1.20
2023-01-04T20:05:45.010Z,0.75
2023-01-04T20:07:53.113Z,0.60
2023-01-04T20:09:58.760Z,0.82
2023-01-04T20:12:04.573Z,0.75
2023-01-04T20:14:09.968Z,0.30
2023-01-04T20:16:15.424Z,0.70
2023-01-04T20:18:21.111Z,0.60
2023-01-04T20:20:26.626Z,0.65
2023-01-04T20:22:32.018Z,0.70
2023-01-04T20:24:40.319Z,0.63
2023-01-04T20:26:46.655Z,0.80
2023-01-04T20:28:52.181Z,1.00
2023-01-04T20:31:05.074Z,0.68
2023-01-04T20:33:15.194Z,0.73
2023-01-04T20:35:28.808Z,1.00
2023-01-04T20:37:38.123Z,0.80
2023-01-04T20:40:26.610Z,0.50
2023-01-04T20:45:25.722Z,0.57
2023-01-04T20:47:35.110Z,0.77
2023-01-04T20:49:51.199Z,0.50
2023-01-04T20:51:57.708Z,0.60
2023-01-04T20:54:07.649Z,2.05
2023-01-04T20:56:21.071Z,0.55
2023-01-04T21:22:35.217Z,0.68
2023-01-04T21:24:40.847Z,0.63
2023-01-04T21:26:46.167Z,0.50
2023-01-04T21:28:51.958Z,0.70
2023-01-04T21:30:57.586Z,0.73
2023-01-04T21:33:03.272Z,0.80
2023-01-04T21:35:10.943Z,0.50
2023-01-04T21:37:16.199Z,0.40
2023-01-04T21:39:24.082Z,0.70
2023-01-04T21:41:31.913Z,0.50
2023-01-04T21:43:37.397Z,0.73
2023-01-04T21:45:43.071Z,0.70
2023-01-04T21:47:48.373Z,0.90
2023-01-04T21:49:53.748Z,0.63
2023-01-04T21:51:59.256Z,0.63
2023-01-04T21:54:05.480Z,0.50
2023-01-04T21:56:17.978Z,0.75
2023-01-04T21:58:24.591Z,0.60
2023-01-04T22:00:30.031Z,0.90
2023-01-04T22:02:36.024Z,0.70
2023-01-04T22:04:41.951Z,0.55
2023-01-04T22:06:47.471Z,0.57
2023-01-04T22:08:53.835Z,0.70
2023-01-04T22:10:59.459Z,0.60
2023-01-04T22:13:07.562Z,0.82
2023-01-04T22:15:14.089Z,0.60
2023-01-04T22:17:19.620Z,0.70
2023-01-04T22:19:25.185Z,0.73
2023-01-04T22:21:30.857Z,0.73
2023-01-04T22:23:36.889Z,0.70
2023-01-04T22:25:42.568Z,0.70
2023-01-04T22:27:52.030Z,0.70
2023-01-04T22:29:59.962Z,0.50
2023-01-04T22:32:07.188Z,0.50
2023-01-04T22:34:12.892Z,0.82
2023-01-04T22:36:23.291Z,0.70
2023-01-04T22:38:29.350Z,0.52
2023-01-04T22:40:34.802Z,0.63
2023-01-04T22:42:40.069Z,0.80
2023-01-04T22:44:45.463Z,0.70
2023-01-04T22:46:53.448Z,0.75
2023-01-04T22:48:59.368Z,0.57
2023-01-04T22:51:09.781Z,0.70
2023-01-04T22:53:15.269Z,0.90
2023-01-04T22:55:21.307Z,1.13
2023-01-04T22:57:26.829Z,0.60
2023-01-04T22:59:32.058Z,0.47
2023-01-04T23:01:37.754Z,0.70
2023-01-04T23:03:47.138Z,0.80
2023-01-04T23:05:52.544Z,0.60
2023-01-04T23:07:57.887Z,0.57
2023-01-04T23:10:03.491Z,0.60
2023-01-04T23:12:09.930Z,0.70
2023-01-04T23:14:18.821Z,0.70
2023-01-04T23:16:31.592Z,0.63
2023-01-04T23:18:39.363Z,0.93
2023-01-04T23:20:47.182Z,0.90
2023-01-04T23:22:52.579Z,0.40
2023-01-04T23:24:57.892Z,0.73
2023-01-04T23:27:03.278Z,0.80
2023-01-04T23:29:08.511Z,0.80
2023-01-04T23:31:16.593Z,0.80
2023-01-04T23:33:21.880Z,0.50
2023-01-04T23:35:30.407Z,0.50
2023-01-04T23:37:38.340Z,0.55
2023-01-04T23:39:44.031Z,0.57
2023-01-04T23:41:49.522Z,0.60
2023-01-04T23:43:54.798Z,0.73
2023-01-04T23:46:00.785Z,0.55
2023-01-04T23:48:06.180Z,0.52
2023-01-04T23:50:12.392Z,0.57
2023-01-04T23:52:17.765Z,0.60
2023-01-04T23:54:26.816Z,0.50
2023-01-04T23:56:32.071Z,0.68
2023-01-04T23:58:37.643Z,0.60
